createdAt,value
2019-01-14T00:03:51.939Z,84.03
2019-01-14T00:06:20.197Z,83.57
2019-01-14T00:08:48.482Z,83.57
2019-01-14T00:11:16.752Z,83.73
2019-01-14T00:13:44.996Z,84.49
2019-01-14T00:16:13.246Z,83.60
2019-01-14T00:18:41.498Z,83.03
2019-01-14T00:21:09.762Z,83.02
2019-01-14T00:23:38.437Z,83.82
2019-01-14T00:26:06.702Z,83.68
2019-01-14T00:28:34.964Z,83.94
2019-01-14T00:31:03.219Z,83.59
2019-01-14T00:33:31.472Z,82.88
2019-01-14T00:35:59.754Z,83.16
2019-01-14T00:38:28.010Z,82.89
2019-01-14T00:40:56.268Z,83.24
2019-01-14T00:43:24.550Z,82.79
2019-01-14T00:45:52.809Z,82.71
2019-01-14T00:48:21.067Z,82.22
2019-01-14T00:50:49.318Z,82.31
2019-01-14T00:53:17.560Z,81.99
2019-01-14T00:55:45.835Z,81.12
2019-01-14T00:58:14.085Z,81.01
2019-01-14T01:00:42.328Z,80.92
2019-01-14T01:03:10.586Z,81.14
2019-01-14T01:05:38.850Z,80.63
2019-01-14T01:08:07.095Z,80.90
2019-01-14T01:10:35.358Z,81.45
2019-01-14T01:13:03.674Z,81.21
2019-01-14T01:15:31.924Z,81.44
2019-01-14T01:18:00.177Z,81.20
2019-01-14T01:23:36.497Z,80.93
2019-01-14T01:26:04.821Z,80.25
2019-01-14T01:28:33.086Z,80.71
2019-01-14T01:31:01.333Z,79.87
2019-01-14T01:33:29.586Z,79.55
2019-01-14T01:35:57.830Z,79.62
2019-01-14T01:38:26.083Z,78.13
2019-01-14T01:40:54.327Z,77.84
2019-01-14T01:43:22.619Z,77.52
2019-01-14T01:45:50.885Z,77.54
2019-01-14T01:48:19.131Z,77.66
2019-01-14T01:50:47.385Z,78.00
2019-01-14T01:53:15.648Z,78.68
2019-01-14T01:55:43.898Z,78.97
2019-01-14T01:58:12.137Z,79.15
2019-01-14T02:00:40.393Z,79.68
2019-01-14T02:03:08.653Z,79.54
2019-01-14T02:05:36.902Z,79.58
2019-01-14T02:08:05.160Z,80.23
2019-01-14T02:10:33.410Z,80.53
2019-01-14T02:13:01.667Z,80.71
2019-01-14T02:15:29.916Z,80.81
2019-01-14T02:17:58.170Z,81.25
2019-01-14T02:20:26.415Z,80.80
2019-01-14T02:22:56.230Z,80.31
2019-01-14T02:25:24.647Z,80.00
2019-01-14T02:27:52.907Z,79.67
2019-01-14T02:31:01.189Z,79.37
2019-01-14T02:33:29.432Z,79.17
2019-01-14T02:35:57.769Z,79.00
2019-01-14T02:38:26.010Z,79.03
2019-01-14T02:40:54.273Z,79.70
2019-01-14T02:43:22.525Z,80.28
2019-01-14T02:45:50.780Z,80.08
2019-01-14T02:48:19.027Z,80.42
2019-01-14T02:50:47.278Z,80.80
2019-01-14T02:53:15.539Z,80.67
2019-01-14T02:55:43.776Z,80.34
2019-01-14T02:58:12.018Z,80.42
2019-01-14T03:00:40.274Z,80.09
2019-01-14T03:03:08.544Z,79.87
2019-01-14T03:05:36.808Z,79.82
2019-01-14T03:08:05.082Z,80.29
2019-01-14T03:10:33.311Z,78.89
2019-01-14T03:13:01.548Z,77.75
2019-01-14T03:15:29.810Z,78.23
2019-01-14T03:17:58.067Z,78.16
2019-01-14T03:20:26.342Z,78.28
2019-01-14T03:22:54.609Z,78.30
2019-01-14T03:25:22.847Z,78.36
2019-01-14T03:27:51.095Z,77.96
2019-01-14T03:30:52.940Z,78.18
2019-01-14T03:33:21.199Z,77.95
2019-01-14T03:35:49.423Z,78.57
2019-01-14T03:38:17.682Z,78.23
2019-01-14T03:40:45.937Z,78.11
2019-01-14T03:43:14.181Z,78.01
2019-01-14T03:45:42.429Z,78.24
2019-01-14T03:48:10.694Z,81.02
2019-01-14T03:50:38.938Z,85.91
2019-01-14T03:53:07.178Z,89.52
2019-01-14T03:55:35.453Z,90.44
2019-01-14T03:58:03.716Z,88.65
2019-01-14T04:00:31.953Z,88.75
2019-01-14T04:03:00.205Z,87.49
2019-01-14T04:05:28.471Z,86.22
2019-01-14T04:07:56.730Z,86.63
2019-01-14T04:10:24.997Z,86.70
2019-01-14T04:12:53.257Z,86.83
2019-01-14T04:15:21.533Z,86.71
2019-01-14T04:17:49.975Z,86.08
2019-01-14T04:20:58.268Z,85.19
2019-01-14T04:23:26.536Z,85.17
2019-01-14T04:25:54.796Z,85.11
2019-01-14T04:28:23.036Z,84.55
2019-01-14T04:30:51.314Z,84.83
2019-01-14T04:33:19.575Z,84.39
2019-01-14T04:35:47.834Z,85.54
2019-01-14T04:38:16.062Z,85.97
2019-01-14T04:40:44.326Z,85.22
2019-01-14T04:43:12.575Z,85.42
2019-01-14T04:45:40.843Z,85.49
2019-01-14T04:48:09.096Z,85.21
2019-01-14T04:50:37.349Z,85.45
2019-01-14T04:53:05.635Z,85.76
2019-01-14T04:55:33.902Z,86.40
2019-01-14T04:58:02.167Z,86.84
2019-01-14T05:00:30.444Z,87.20
2019-01-14T05:02:58.774Z,87.92
2019-01-14T05:05:27.040Z,88.78
2019-01-14T05:07:55.313Z,89.34
2019-01-14T05:10:23.578Z,89.77
2019-01-14T05:12:51.832Z,89.90
2019-01-14T05:15:20.090Z,89.50
2019-01-14T05:17:48.349Z,88.08
2019-01-14T05:20:56.643Z,87.53
2019-01-14T05:23:24.996Z,87.01
2019-01-14T05:25:53.279Z,85.67
2019-01-14T05:28:21.543Z,85.70
2019-01-14T05:30:50.431Z,84.47
2019-01-14T05:33:18.703Z,83.17
2019-01-14T05:35:46.958Z,82.72
2019-01-14T05:38:15.226Z,82.28
2019-01-14T05:40:43.503Z,80.17
2019-01-14T05:43:11.754Z,79.01
2019-01-14T05:45:40.022Z,78.08
2019-01-14T05:48:08.300Z,76.98
2019-01-14T05:50:36.556Z,76.95
2019-01-14T05:53:04.835Z,77.04
2019-01-14T05:55:33.066Z,74.34
2019-01-14T05:58:01.343Z,74.93
2019-01-14T06:01:03.040Z,74.01
2019-01-14T06:03:31.296Z,74.67
2019-01-14T06:05:59.578Z,73.96
2019-01-14T06:08:27.831Z,73.49
2019-01-14T06:10:56.077Z,73.17
2019-01-14T06:13:24.353Z,72.98
2019-01-14T06:15:52.633Z,73.77
2019-01-14T06:18:20.868Z,74.35
2019-01-14T06:20:49.146Z,75.13
2019-01-14T06:23:17.400Z,74.54
2019-01-14T06:25:45.674Z,74.57
2019-01-14T06:28:13.916Z,75.19
2019-01-14T06:30:42.190Z,74.12
2019-01-14T06:33:10.444Z,74.80
2019-01-14T06:35:38.755Z,75.41
2019-01-14T06:38:07.018Z,74.76
2019-01-14T06:40:35.270Z,75.42
2019-01-14T06:46:05.086Z,75.30
2019-01-14T07:02:48.428Z,76.60
2019-01-14T07:08:18.406Z,75.80
2019-01-14T07:10:46.703Z,75.09
2019-01-14T07:13:14.971Z,75.12
2019-01-14T07:15:43.225Z,75.41
2019-01-14T07:18:11.499Z,75.09
2019-01-14T07:20:39.767Z,74.84
2019-01-14T07:23:08.359Z,74.78
2019-01-14T07:25:38.028Z,74.68
2019-01-14T07:28:06.288Z,74.99
2019-01-14T07:30:34.558Z,74.68
2019-01-14T07:33:02.820Z,74.09
2019-01-14T07:35:31.098Z,75.10
2019-01-14T07:38:06.404Z,76.53
2019-01-14T07:40:29.346Z,78.55
2019-01-14T07:42:57.581Z,80.32
2019-01-14T07:45:25.842Z,81.05
2019-01-14T07:47:54.114Z,81.17
2019-01-14T07:50:22.443Z,81.60
2019-01-14T07:52:50.698Z,81.77
2019-01-14T07:55:18.972Z,81.81
2019-01-14T07:57:47.223Z,81.59
2019-01-14T08:00:34.827Z,81.61
2019-01-14T08:03:03.095Z,82.19
2019-01-14T08:05:31.333Z,82.38
2019-01-14T08:07:59.610Z,82.57
2019-01-14T08:10:27.857Z,82.35
2019-01-14T08:12:56.185Z,82.54
2019-01-14T08:15:24.380Z,82.94
2019-01-14T08:17:52.628Z,82.62
2019-01-14T08:20:20.884Z,82.86
2019-01-14T08:22:49.160Z,83.53
2019-01-14T08:25:17.446Z,83.89
2019-01-14T08:27:45.683Z,85.04
2019-01-14T08:30:53.996Z,86.02
2019-01-14T08:33:22.321Z,87.41
2019-01-14T08:35:50.535Z,88.28
2019-01-14T08:38:21.329Z,89.13
2019-01-14T08:40:48.806Z,89.49
2019-01-14T08:43:17.059Z,89.82
2019-01-14T08:45:45.487Z,89.78
2019-01-14T08:48:13.736Z,90.15
2019-01-14T08:51:01.341Z,89.55
2019-01-14T08:53:29.605Z,89.55
2019-01-14T08:55:57.850Z,89.24
2019-01-14T08:58:26.118Z,89.48
2019-01-14T09:00:54.438Z,90.06
2019-01-14T09:03:22.709Z,92.35
2019-01-14T09:05:50.963Z,96.14
2019-01-14T09:08:19.242Z,100.00
2019-01-14T09:10:47.512Z,100.00
2019-01-14T09:13:15.823Z,100.00
2019-01-14T09:18:35.193Z,100.00
2019-01-14T09:21:03.503Z,100.00
2019-01-14T09:23:31.859Z,100.00
2019-01-14T09:26:00.140Z,100.00
2019-01-14T09:28:28.428Z,100.00
2019-01-14T09:30:56.704Z,100.00
2019-01-14T09:33:44.484Z,100.00
2019-01-14T09:36:12.736Z,100.00
2019-01-14T09:38:41.018Z,100.00
2019-01-14T09:41:09.271Z,100.00
2019-01-14T09:43:37.540Z,100.00
2019-01-14T09:46:05.815Z,100.00
2019-01-14T09:48:34.093Z,98.88
2019-01-14T09:51:02.378Z,96.94
2019-01-14T09:53:30.622Z,95.44
2019-01-14T09:55:58.894Z,94.69
2019-01-14T09:58:27.144Z,96.76
2019-01-14T10:00:55.416Z,98.13
2019-01-14T10:03:23.686Z,98.07
2019-01-14T10:05:51.978Z,98.06
2019-01-14T10:08:20.230Z,96.84
2019-01-14T10:10:48.583Z,96.50
2019-01-14T10:13:16.868Z,96.72
2019-01-14T10:15:45.141Z,97.36
2019-01-14T10:18:13.426Z,97.38
2019-01-14T10:20:41.671Z,97.12
2019-01-14T10:23:09.921Z,96.35
2019-01-14T10:25:38.221Z,95.22
2019-01-14T10:28:06.460Z,94.71
2019-01-14T10:30:34.738Z,93.97
2019-01-14T10:33:02.997Z,94.26
2019-01-14T10:35:31.380Z,94.21
2019-01-14T10:37:59.666Z,93.64
2019-01-14T10:40:27.955Z,94.20
2019-01-14T10:42:56.215Z,93.21
2019-01-14T10:45:24.604Z,92.52
2019-01-14T10:47:52.882Z,91.24
2019-01-14T10:50:21.210Z,89.86
2019-01-14T10:52:49.488Z,88.26
2019-01-14T10:55:17.769Z,86.81
2019-01-14T10:57:46.114Z,85.90
2019-01-14T11:00:54.413Z,85.94
2019-01-14T11:03:22.699Z,85.29
2019-01-14T11:05:51.047Z,85.10
2019-01-14T11:08:19.257Z,85.33
2019-01-14T11:10:47.517Z,84.45
2019-01-14T11:13:15.781Z,85.72
2019-01-14T11:15:44.057Z,85.39
2019-01-14T11:18:12.321Z,86.19
2019-01-14T11:20:40.580Z,86.84
2019-01-14T11:23:08.886Z,86.98
2019-01-14T11:25:37.185Z,87.05
2019-01-14T11:28:05.531Z,87.02
2019-01-14T11:30:33.937Z,87.29
2019-01-14T11:33:02.280Z,86.92
2019-01-14T11:35:30.553Z,86.76
2019-01-14T11:37:59.039Z,86.73
2019-01-14T11:41:07.305Z,86.89
2019-01-14T11:43:35.555Z,86.68
2019-01-14T11:46:03.882Z,85.57
2019-01-14T11:48:32.138Z,85.67
2019-01-14T11:51:00.401Z,85.28
2019-01-14T11:53:28.691Z,84.34
2019-01-14T11:55:57.001Z,84.25
2019-01-14T11:58:25.249Z,84.38
2019-01-14T12:00:53.514Z,83.50
2019-01-14T12:03:21.751Z,83.11
2019-01-14T12:05:50.029Z,82.97
2019-01-14T12:08:37.468Z,82.67
2019-01-14T12:11:05.732Z,82.62
2019-01-14T12:13:33.996Z,81.13
2019-01-14T12:16:02.271Z,80.18
2019-01-14T12:18:30.528Z,79.22
2019-01-14T12:20:58.786Z,77.36
2019-01-14T12:23:27.045Z,78.08
2019-01-14T12:25:55.323Z,77.57
2019-01-14T12:28:23.701Z,78.11
2019-01-14T12:30:51.978Z,78.60
2019-01-14T12:33:20.248Z,78.79
2019-01-14T12:35:48.503Z,78.41
2019-01-14T12:38:16.768Z,78.58
2019-01-14T12:40:45.038Z,78.67
2019-01-14T12:43:32.405Z,78.36
2019-01-14T12:46:00.672Z,78.89
2019-01-14T12:48:28.971Z,80.12
2019-01-14T12:50:57.215Z,79.71
2019-01-14T12:53:25.469Z,80.38
2019-01-14T12:55:54.238Z,80.44
2019-01-14T12:58:22.533Z,80.72
2019-01-14T13:00:50.789Z,80.13
2019-01-14T13:03:19.037Z,79.89
2019-01-14T13:05:47.310Z,79.03
2019-01-14T13:08:15.606Z,78.71
2019-01-14T13:10:43.886Z,78.63
2019-01-14T13:13:12.132Z,77.79
2019-01-14T13:15:40.391Z,76.70
2019-01-14T13:18:08.668Z,77.34
2019-01-14T13:20:36.955Z,77.42
2019-01-14T13:23:05.263Z,77.81
2019-01-14T13:25:33.538Z,78.44
2019-01-14T13:28:01.794Z,77.53
2019-01-14T13:30:30.162Z,77.48
2019-01-14T13:36:06.650Z,77.17
2019-01-14T13:38:34.910Z,76.71
2019-01-14T13:41:03.194Z,76.97
2019-01-14T13:43:31.475Z,77.31
2019-01-14T13:45:59.732Z,76.81
2019-01-14T13:48:28.011Z,77.39
2019-01-14T13:50:56.251Z,78.08
2019-01-14T13:53:24.522Z,78.56
2019-01-14T13:55:59.294Z,78.77
2019-01-14T13:58:22.834Z,78.56
2019-01-14T14:00:51.111Z,78.26
2019-01-14T14:03:19.365Z,77.59
2019-01-14T14:05:47.623Z,77.50
2019-01-14T14:08:15.886Z,75.44
2019-01-14T14:10:44.147Z,75.33
2019-01-14T14:13:12.417Z,75.60
2019-01-14T14:18:48.736Z,75.59
2019-01-14T14:21:17.006Z,75.43
2019-01-14T14:23:45.278Z,75.82
2019-01-14T14:26:13.539Z,76.10
2019-01-14T14:28:41.814Z,76.86
2019-01-14T14:31:10.085Z,77.61
2019-01-14T14:33:39.087Z,79.30
2019-01-14T14:36:07.384Z,81.46
2019-01-14T14:38:35.623Z,84.10
2019-01-14T14:41:03.908Z,87.42
2019-01-14T14:43:32.168Z,90.41
2019-01-14T14:46:00.428Z,92.79
2019-01-14T14:48:28.677Z,94.69
2019-01-14T14:50:56.960Z,95.24
2019-01-14T14:53:25.201Z,94.16
2019-01-14T14:55:53.484Z,92.46
2019-01-14T14:58:21.754Z,91.59
2019-01-14T15:00:50.009Z,91.03
2019-01-14T15:03:18.269Z,90.57
2019-01-14T15:05:46.539Z,90.16
2019-01-14T15:08:14.795Z,89.82
2019-01-14T15:10:43.046Z,89.94
2019-01-14T15:13:11.324Z,89.68
2019-01-14T15:15:39.576Z,89.08
2019-01-14T15:18:07.832Z,89.04
2019-01-14T15:20:36.075Z,89.34
2019-01-14T15:23:04.327Z,89.97
2019-01-14T15:25:32.584Z,90.11
2019-01-14T15:28:00.835Z,90.01
2019-01-14T15:30:29.312Z,90.19
2019-01-14T15:32:57.580Z,89.52
2019-01-14T15:35:25.942Z,89.26
2019-01-14T15:37:54.197Z,89.17
2019-01-14T15:41:03.126Z,88.53
2019-01-14T15:43:31.459Z,88.17
2019-01-14T15:45:59.726Z,87.65
2019-01-14T15:48:27.976Z,87.10
2019-01-14T15:50:56.243Z,86.48
2019-01-14T15:53:24.498Z,86.77
2019-01-14T15:55:52.791Z,86.41
2019-01-14T15:58:21.046Z,86.17
2019-01-14T16:00:49.310Z,86.13
2019-01-14T16:03:17.560Z,85.98
2019-01-14T16:05:45.818Z,85.97
2019-01-14T16:08:14.121Z,85.63
2019-01-14T16:10:42.389Z,85.46
2019-01-14T16:13:10.660Z,85.46
2019-01-14T16:15:38.925Z,85.69
2019-01-14T16:18:07.174Z,85.47
2019-01-14T16:20:35.441Z,85.71
2019-01-14T16:23:03.714Z,85.65
2019-01-14T16:25:31.987Z,86.10
2019-01-14T16:28:00.243Z,85.54
2019-01-14T16:30:28.498Z,85.12
2019-01-14T16:32:56.791Z,85.09
2019-01-14T16:35:25.045Z,85.08
2019-01-14T16:37:53.301Z,85.21
2019-01-14T16:40:21.573Z,85.70
2019-01-14T16:42:49.839Z,85.54
2019-01-14T16:45:58.120Z,85.04
2019-01-14T16:48:26.381Z,85.56
2019-01-14T16:50:54.622Z,85.48
2019-01-14T16:53:22.905Z,85.33
2019-01-14T16:58:40.118Z,84.96
2019-01-14T17:01:08.368Z,84.82
2019-01-14T17:03:36.622Z,84.93
2019-01-14T17:06:05.048Z,84.74
2019-01-14T17:08:33.328Z,84.74
2019-01-14T17:11:01.576Z,84.31
2019-01-14T17:13:29.843Z,84.58
2019-01-14T17:15:58.117Z,84.05
2019-01-14T17:18:26.392Z,84.78
2019-01-14T17:20:54.641Z,83.71
2019-01-14T17:23:42.345Z,84.02
2019-01-14T17:26:10.635Z,84.10
2019-01-14T17:28:38.893Z,83.86
2019-01-14T17:31:07.156Z,83.68
2019-01-14T17:33:35.443Z,82.95
2019-01-14T17:36:03.695Z,82.88
2019-01-14T17:38:31.944Z,83.13
2019-01-14T17:41:00.220Z,83.29
2019-01-14T17:43:28.475Z,83.45
2019-01-14T17:45:56.730Z,82.59
2019-01-14T17:48:24.992Z,82.55
2019-01-14T17:50:53.334Z,82.79
2019-01-14T17:53:21.637Z,82.82
2019-01-14T17:55:50.463Z,82.92
2019-01-14T17:58:18.691Z,82.93
2019-01-14T18:00:46.945Z,83.30
2019-01-14T18:03:15.205Z,83.38
2019-01-14T18:05:43.476Z,83.46
2019-01-14T18:08:11.738Z,83.50
2019-01-14T18:10:40.429Z,83.84
2019-01-14T18:13:09.967Z,84.27
2019-01-14T18:15:38.221Z,84.43
2019-01-14T18:18:06.484Z,84.99
2019-01-14T18:20:34.762Z,85.02
2019-01-14T18:23:03.200Z,85.46
2019-01-14T18:25:31.454Z,85.60
2019-01-14T18:27:59.822Z,85.55
2019-01-14T18:30:28.097Z,85.42
2019-01-14T18:32:56.353Z,85.53
2019-01-14T18:35:24.620Z,85.64
2019-01-14T18:37:52.865Z,85.60
2019-01-14T18:40:21.115Z,85.38
2019-01-14T18:42:49.375Z,85.48
2019-01-14T18:45:57.701Z,85.41
2019-01-14T18:48:25.951Z,85.46
2019-01-14T18:50:54.212Z,85.24
2019-01-14T18:53:22.451Z,84.92
2019-01-14T18:55:50.716Z,84.63
2019-01-14T18:58:18.980Z,84.00
2019-01-14T19:00:47.231Z,84.04
2019-01-14T19:03:15.495Z,83.89
2019-01-14T19:05:43.755Z,83.28
2019-01-14T19:08:12.000Z,83.58
2019-01-14T19:10:40.260Z,83.52
2019-01-14T19:13:08.520Z,84.00
2019-01-14T19:15:36.793Z,84.01
2019-01-14T19:18:05.035Z,83.18
2019-01-14T19:20:33.277Z,83.45
2019-01-14T19:23:01.577Z,83.59
2019-01-14T19:25:29.854Z,83.25
2019-01-14T19:27:58.100Z,83.04
2019-01-14T19:30:26.367Z,83.14
2019-01-14T19:32:54.611Z,83.56
2019-01-14T19:35:22.889Z,83.52
2019-01-14T19:37:51.163Z,83.71
2019-01-14T19:41:02.048Z,83.86
2019-01-14T19:43:29.497Z,83.98
2019-01-14T19:45:57.739Z,83.91
2019-01-14T19:48:25.992Z,83.99
2019-01-14T19:50:54.257Z,84.12
2019-01-14T19:53:22.540Z,84.21
2019-01-14T19:55:50.813Z,84.77
2019-01-14T19:58:19.077Z,84.84
2019-01-14T20:00:47.338Z,84.87
2019-01-14T20:03:15.580Z,85.17
2019-01-14T20:05:43.867Z,85.54
2019-01-14T20:11:01.074Z,86.07
2019-01-14T20:13:29.335Z,86.07
2019-01-14T20:15:57.602Z,86.37
2019-01-14T20:18:25.856Z,86.48
2019-01-14T20:20:54.108Z,87.10
2019-01-14T20:23:41.697Z,87.28
2019-01-14T20:26:09.984Z,87.85
2019-01-14T20:28:38.230Z,88.49
2019-01-14T20:31:06.484Z,88.75
2019-01-14T20:33:34.753Z,89.11
2019-01-14T20:36:03.018Z,89.16
2019-01-14T20:38:32.238Z,89.34
2019-01-14T20:41:01.259Z,89.73
2019-01-14T20:43:29.528Z,90.02
2019-01-14T20:45:57.779Z,90.06
2019-01-14T20:48:26.044Z,90.13
2019-01-14T20:50:54.318Z,90.43
2019-01-14T20:53:22.573Z,90.41
2019-01-14T20:55:50.808Z,90.40
2019-01-14T20:58:19.118Z,89.88
2019-01-14T21:00:47.377Z,89.46
2019-01-14T21:03:15.658Z,89.23
2019-01-14T21:05:43.907Z,89.01
2019-01-14T21:08:12.155Z,88.89
2019-01-14T21:10:40.418Z,87.59
2019-01-14T21:13:08.695Z,87.02
2019-01-14T21:15:36.940Z,86.83
2019-01-14T21:18:05.206Z,86.22
2019-01-14T21:20:33.457Z,85.93
2019-01-14T21:23:01.716Z,86.00
2019-01-14T21:25:30.044Z,85.57
2019-01-14T21:27:58.322Z,85.20
2019-01-14T21:30:26.585Z,84.87
2019-01-14T21:32:54.851Z,84.85
2019-01-14T21:35:23.118Z,84.62
2019-01-14T21:38:25.487Z,84.46
2019-01-14T21:40:53.821Z,84.44
2019-01-14T21:43:22.078Z,84.40
2019-01-14T21:45:50.352Z,84.44
2019-01-14T21:48:18.624Z,84.06
2019-01-14T21:50:46.869Z,84.10
2019-01-14T21:53:15.130Z,83.98
2019-01-14T21:55:43.395Z,83.70
2019-01-14T21:58:11.649Z,83.66
2019-01-14T22:00:39.903Z,83.82
2019-01-14T22:03:08.156Z,83.78
2019-01-14T22:05:36.400Z,83.52
2019-01-14T22:08:04.701Z,83.51
2019-01-14T22:11:12.958Z,83.48
2019-01-14T22:13:42.087Z,83.31
2019-01-14T22:16:10.342Z,83.28
2019-01-14T22:18:38.599Z,83.34
2019-01-14T22:21:06.848Z,83.26
2019-01-14T22:23:35.112Z,83.02
2019-01-14T22:26:03.371Z,82.83
2019-01-14T22:28:31.632Z,82.63
2019-01-14T22:30:59.905Z,82.54
2019-01-14T22:33:28.166Z,82.35
2019-01-14T22:35:56.404Z,82.33
2019-01-14T22:38:24.663Z,81.85
2019-01-14T22:40:52.939Z,81.70
2019-01-14T22:43:21.185Z,81.59
2019-01-14T22:45:49.446Z,81.10
2019-01-14T22:48:17.705Z,81.20
2019-01-14T22:50:45.957Z,81.48
2019-01-14T22:53:14.240Z,81.10
2019-01-14T22:55:42.506Z,81.21
2019-01-14T22:58:10.765Z,81.39
2019-01-14T23:01:19.061Z,81.84
2019-01-14T23:03:47.308Z,81.54
2019-01-14T23:06:15.579Z,81.70
2019-01-14T23:11:32.785Z,82.34
2019-01-14T23:14:01.026Z,82.14
2019-01-14T23:16:29.282Z,82.90
2019-01-14T23:18:57.533Z,82.79
2019-01-14T23:21:25.784Z,82.72
2019-01-14T23:23:54.036Z,83.10
2019-01-14T23:26:22.313Z,83.33
2019-01-14T23:28:50.589Z,83.28
2019-01-14T23:31:18.839Z,83.23
2019-01-14T23:33:47.105Z,83.68
2019-01-14T23:36:48.782Z,82.96
2019-01-14T23:39:17.147Z,82.96
2019-01-14T23:41:45.406Z,82.53
2019-01-14T23:44:13.685Z,82.04
2019-01-14T23:46:41.949Z,82.28
2019-01-14T23:49:10.226Z,82.31
2019-01-14T23:51:38.500Z,82.08
2019-01-14T23:54:06.776Z,82.17
2019-01-14T23:56:35.022Z,82.20
2019-01-14T23:59:03.279Z,81.66
